createdAt,value
2022-12-15T00:00:14.854Z,144.68
2022-12-15T00:01:17.830Z,143.72
2022-12-15T00:02:17.918Z,143.79
2022-12-15T00:03:14.913Z,143.38
2022-12-15T00:04:14.765Z,143.00
2022-12-15T00:05:14.756Z,143.56
2022-12-15T00:06:14.849Z,143.73
2022-12-15T00:07:14.764Z,143.06
2022-12-15T00:08:14.762Z,144.78
2022-12-15T00:09:16.135Z,144.55
2022-12-15T00:10:14.713Z,144.88
2022-12-15T00:11:14.675Z,144.68
2022-12-15T00:12:14.675Z,146.09
2022-12-15T00:13:14.662Z,145.16
2022-12-15T00:14:14.665Z,146.20
2022-12-15T00:15:14.634Z,146.49
2022-12-15T00:16:14.679Z,147.71
2022-12-15T00:17:14.654Z,148.63
2022-12-15T00:18:14.605Z,149.18
2022-12-15T00:19:14.566Z,149.72
2022-12-15T00:20:14.564Z,151.01
2022-12-15T00:21:17.542Z,151.71
2022-12-15T00:22:17.578Z,153.94
2022-12-15T00:23:14.581Z,155.83
2022-12-15T00:24:14.505Z,156.40
2022-12-15T00:25:14.542Z,158.05
2022-12-15T00:26:14.509Z,155.51
2022-12-15T00:27:14.445Z,154.15
2022-12-15T00:28:14.434Z,154.03
2022-12-15T00:29:14.444Z,154.11
2022-12-15T00:30:14.429Z,154.39
2022-12-15T00:31:14.461Z,154.96
2022-12-15T00:32:14.408Z,156.95
2022-12-15T00:33:14.415Z,156.42
2022-12-15T00:34:14.406Z,156.42
2022-12-15T00:35:14.396Z,156.87
2022-12-15T00:36:14.414Z,155.30
2022-12-15T00:37:14.344Z,152.81
2022-12-15T00:38:14.346Z,151.33
2022-12-15T00:39:14.313Z,152.36
2022-12-15T00:40:14.327Z,151.59
2022-12-15T00:41:17.327Z,150.71
2022-12-15T00:42:17.293Z,150.97
2022-12-15T00:43:14.265Z,150.28
2022-12-15T00:44:18.958Z,149.52
2022-12-15T00:45:15.227Z,147.02
2022-12-15T00:46:14.255Z,147.04
2022-12-15T00:47:14.235Z,147.28
2022-12-15T00:48:14.176Z,146.11
2022-12-15T00:49:14.186Z,144.44
2022-12-15T00:50:14.176Z,146.46
2022-12-15T00:51:14.146Z,145.05
2022-12-15T00:52:14.146Z,145.68
2022-12-15T00:53:14.146Z,148.84
2022-12-15T00:54:18.054Z,147.33
2022-12-15T00:55:14.133Z,145.17
2022-12-15T00:56:14.097Z,144.05
2022-12-15T00:57:14.061Z,144.96
2022-12-15T00:58:14.080Z,145.49
2022-12-15T00:59:14.071Z,143.99
2022-12-15T01:00:14.059Z,144.61
2022-12-15T01:01:17.071Z,144.35
2022-12-15T01:02:17.131Z,147.30
2022-12-15T01:03:14.119Z,147.52
2022-12-15T01:04:14.088Z,146.76
2022-12-15T01:05:14.005Z,147.23
2022-12-15T01:06:13.957Z,147.48
2022-12-15T01:07:13.937Z,149.60
2022-12-15T01:08:13.948Z,149.12
2022-12-15T01:09:13.938Z,149.21
2022-12-15T01:10:13.935Z,149.69
2022-12-15T01:11:13.891Z,151.51
2022-12-15T01:12:13.891Z,151.30
2022-12-15T01:13:13.896Z,151.45
2022-12-15T01:14:13.898Z,151.27
2022-12-15T01:15:13.838Z,152.23
2022-12-15T01:16:13.845Z,152.23
2022-12-15T01:17:13.820Z,152.00
2022-12-15T01:18:13.878Z,154.70
2022-12-15T01:19:13.839Z,155.65
2022-12-15T01:20:13.760Z,158.80
2022-12-15T01:21:16.761Z,158.62
2022-12-15T01:22:16.752Z,157.60
2022-12-15T01:23:13.748Z,156.34
2022-12-15T01:24:13.717Z,155.69
2022-12-15T01:25:13.720Z,155.32
2022-12-15T01:26:13.724Z,155.08
2022-12-15T01:27:13.701Z,155.43
2022-12-15T01:28:13.689Z,156.08
2022-12-15T01:29:13.660Z,156.24
2022-12-15T01:30:13.662Z,157.07
2022-12-15T01:31:13.697Z,157.89
2022-12-15T01:32:13.597Z,158.24
2022-12-15T01:33:13.585Z,158.92
2022-12-15T01:34:13.579Z,160.60
2022-12-15T01:35:13.592Z,162.76
2022-12-15T01:36:13.647Z,164.95
2022-12-15T01:37:13.548Z,166.81
2022-12-15T01:38:13.545Z,165.80
2022-12-15T01:39:13.542Z,164.81
2022-12-15T01:40:13.498Z,165.28
2022-12-15T01:41:16.528Z,166.84
2022-12-15T01:42:16.510Z,169.97
2022-12-15T01:43:13.470Z,167.84
2022-12-15T01:44:13.475Z,165.45
2022-12-15T01:45:13.470Z,165.16
2022-12-15T01:46:13.497Z,163.24
2022-12-15T01:47:13.492Z,161.33
2022-12-15T01:48:13.436Z,160.06
2022-12-15T01:49:13.399Z,159.22
2022-12-15T01:50:13.389Z,159.17
2022-12-15T01:51:13.378Z,158.84
2022-12-15T01:52:13.388Z,158.73
2022-12-15T01:53:13.359Z,158.28
2022-12-15T01:54:13.309Z,159.46
2022-12-15T01:55:13.333Z,159.77
2022-12-15T01:56:13.311Z,160.69
2022-12-15T01:57:13.330Z,163.53
2022-12-15T01:58:13.290Z,164.16
2022-12-15T01:59:13.260Z,165.66
2022-12-15T02:00:13.274Z,163.18
2022-12-15T02:01:16.314Z,162.92
2022-12-15T02:02:16.401Z,163.36
2022-12-15T02:03:13.244Z,160.55
2022-12-15T02:04:13.195Z,158.53
2022-12-15T02:05:13.200Z,155.60
2022-12-15T02:06:13.172Z,154.27
2022-12-15T02:07:13.151Z,154.13
2022-12-15T02:08:13.130Z,151.48
2022-12-15T02:09:13.192Z,149.46
2022-12-15T02:10:13.151Z,149.58
2022-12-15T02:11:13.111Z,150.24
2022-12-15T02:12:13.142Z,148.61
2022-12-15T02:13:13.072Z,148.46
2022-12-15T02:14:13.087Z,148.45
2022-12-15T02:15:13.086Z,149.10
2022-12-15T02:16:13.096Z,149.70
2022-12-15T02:17:13.039Z,150.28
2022-12-15T02:18:13.019Z,151.73
2022-12-15T02:19:12.991Z,154.14
2022-12-15T02:20:13.001Z,156.48
2022-12-15T02:21:15.971Z,156.65
2022-12-15T02:22:15.978Z,156.82
2022-12-15T02:23:12.941Z,157.41
2022-12-15T02:24:12.958Z,156.81
2022-12-15T02:25:12.994Z,156.58
2022-12-15T02:26:12.910Z,157.02
2022-12-15T02:27:12.901Z,158.33
2022-12-15T02:28:12.893Z,158.35
2022-12-15T02:29:12.851Z,158.23
2022-12-15T02:30:12.842Z,158.61
2022-12-15T02:31:12.937Z,162.87
2022-12-15T02:32:12.852Z,163.06
2022-12-15T02:33:12.802Z,162.20
2022-12-15T02:34:12.812Z,160.00
2022-12-15T02:35:12.793Z,158.02
2022-12-15T02:36:12.764Z,157.53
2022-12-15T02:37:12.783Z,156.85
2022-12-15T02:38:12.742Z,156.63
2022-12-15T02:39:12.739Z,157.22
2022-12-15T02:40:12.715Z,157.30
2022-12-15T02:41:15.773Z,157.44
2022-12-15T02:42:15.743Z,159.35
2022-12-15T02:43:12.701Z,159.28
2022-12-15T02:44:12.691Z,161.63
2022-12-15T02:45:12.642Z,165.70
2022-12-15T02:46:12.721Z,162.96
2022-12-15T02:47:12.681Z,160.54
2022-12-15T02:48:12.616Z,159.53
2022-12-15T02:49:12.623Z,159.11
2022-12-15T02:50:12.585Z,158.59
2022-12-15T02:51:12.554Z,159.46
2022-12-15T02:52:12.600Z,159.40
2022-12-15T02:53:12.605Z,158.87
2022-12-15T02:54:12.546Z,158.54
2022-12-15T02:55:12.532Z,158.52
2022-12-15T02:56:12.504Z,158.70
2022-12-15T02:57:12.513Z,159.31
2022-12-15T02:58:12.463Z,160.55
2022-12-15T02:59:12.526Z,160.20
2022-12-15T03:00:12.476Z,160.62
2022-12-15T03:01:15.493Z,161.65
2022-12-15T03:02:15.647Z,162.29
2022-12-15T03:03:12.449Z,161.28
2022-12-15T03:04:12.446Z,161.26
2022-12-15T03:05:12.395Z,161.11
2022-12-15T03:06:12.364Z,161.07
2022-12-15T03:07:12.385Z,161.31
2022-12-15T03:08:12.364Z,162.00
2022-12-15T03:09:12.344Z,163.33
2022-12-15T03:10:12.336Z,164.26
2022-12-15T03:11:12.294Z,164.45
2022-12-15T03:12:12.301Z,165.10
2022-12-15T03:13:12.273Z,166.29
2022-12-15T03:14:12.286Z,165.42
2022-12-15T03:15:12.265Z,165.71
2022-12-15T03:16:12.289Z,167.28
2022-12-15T03:17:12.228Z,165.93
2022-12-15T03:18:12.248Z,167.35
2022-12-15T03:19:12.245Z,164.89
2022-12-15T03:20:12.215Z,164.08
2022-12-15T03:21:15.174Z,164.24
2022-12-15T03:22:15.199Z,166.30
2022-12-15T03:23:12.135Z,163.38
2022-12-15T03:24:12.299Z,161.19
2022-12-15T03:25:12.135Z,158.77
2022-12-15T03:26:12.095Z,157.62
2022-12-15T03:27:12.095Z,155.38
2022-12-15T03:28:12.088Z,154.95
2022-12-15T03:29:12.057Z,155.34
2022-12-15T03:30:12.081Z,155.79
2022-12-15T03:31:12.044Z,155.94
2022-12-15T03:32:12.080Z,156.37
2022-12-15T03:33:12.040Z,157.94
2022-12-15T03:34:12.027Z,156.37
2022-12-15T03:35:12.078Z,155.60
2022-12-15T03:36:11.976Z,156.67
2022-12-15T03:37:11.980Z,156.13
2022-12-15T03:38:11.973Z,156.84
2022-12-15T03:39:11.946Z,156.31
2022-12-15T03:40:11.983Z,156.33
2022-12-15T03:41:14.894Z,155.66
2022-12-15T03:42:14.908Z,156.63
2022-12-15T03:43:11.878Z,156.46
2022-12-15T03:44:11.862Z,155.79
2022-12-15T03:45:11.867Z,155.69
2022-12-15T03:46:11.992Z,155.57
2022-12-15T03:47:11.826Z,156.34
2022-12-15T03:48:11.837Z,156.09
2022-12-15T03:49:11.816Z,156.98
2022-12-15T03:50:11.797Z,156.68
2022-12-15T03:51:11.834Z,156.43
2022-12-15T03:52:11.779Z,158.56
2022-12-15T03:53:11.762Z,158.06
2022-12-15T03:54:11.748Z,158.80
2022-12-15T03:55:11.749Z,159.52
2022-12-15T03:56:11.715Z,158.21
2022-12-15T03:57:11.756Z,157.34
2022-12-15T03:58:11.715Z,156.25
2022-12-15T03:59:11.675Z,156.32
2022-12-15T04:00:11.677Z,156.94
2022-12-15T04:01:14.687Z,156.61
2022-12-15T04:02:14.918Z,158.32
2022-12-15T04:03:11.823Z,158.62
2022-12-15T04:04:11.637Z,157.95
2022-12-15T04:05:11.588Z,158.72
2022-12-15T04:06:11.607Z,159.05
2022-12-15T04:07:11.567Z,161.10
2022-12-15T04:08:11.588Z,161.33
2022-12-15T04:09:11.585Z,165.03
2022-12-15T04:10:11.558Z,166.05
2022-12-15T04:11:11.508Z,164.93
2022-12-15T04:12:11.499Z,166.00
2022-12-15T04:13:11.510Z,164.11
2022-12-15T04:14:11.458Z,161.00
2022-12-15T04:15:11.479Z,159.74
2022-12-15T04:16:14.788Z,160.70
2022-12-15T04:17:12.477Z,158.95
2022-12-15T04:18:11.466Z,158.69
2022-12-15T04:19:11.402Z,157.20
2022-12-15T04:20:11.397Z,156.92
2022-12-15T04:21:14.411Z,157.61
2022-12-15T04:22:17.971Z,159.12
2022-12-15T04:23:11.419Z,158.97
2022-12-15T04:24:11.341Z,159.66
2022-12-15T04:25:11.339Z,158.84
2022-12-15T04:26:11.313Z,160.18
2022-12-15T04:27:11.297Z,161.20
2022-12-15T04:28:11.301Z,162.11
2022-12-15T04:29:11.321Z,163.03
2022-12-15T04:30:11.247Z,163.29
2022-12-15T04:31:11.313Z,164.15
2022-12-15T04:32:11.242Z,165.48
2022-12-15T04:33:11.225Z,163.64
2022-12-15T04:34:11.357Z,163.32
2022-12-15T04:35:11.208Z,164.20
2022-12-15T04:36:11.189Z,164.56
2022-12-15T04:37:11.189Z,166.53
2022-12-15T04:38:11.177Z,165.62
2022-12-15T04:39:11.236Z,166.17
2022-12-15T04:40:11.184Z,165.56
2022-12-15T04:41:14.125Z,165.46
2022-12-15T04:42:14.109Z,166.30
2022-12-15T04:43:11.123Z,167.49
2022-12-15T04:44:11.112Z,167.59
2022-12-15T04:45:15.505Z,166.70
2022-12-15T04:46:12.088Z,166.83
2022-12-15T04:47:11.059Z,167.24
2022-12-15T04:48:11.031Z,166.60
2022-12-15T04:49:11.035Z,166.62
2022-12-15T04:50:11.008Z,166.68
2022-12-15T04:51:11.050Z,169.65
2022-12-15T04:52:10.990Z,170.57
2022-12-15T04:53:10.979Z,172.34
2022-12-15T04:54:10.960Z,172.70
2022-12-15T04:55:10.979Z,172.15
2022-12-15T04:56:16.521Z,172.27
2022-12-15T04:57:11.911Z,172.37
2022-12-15T04:58:10.919Z,171.34
2022-12-15T04:59:10.930Z,169.98
2022-12-15T05:00:10.896Z,170.14
2022-12-15T05:01:13.981Z,169.65
2022-12-15T05:02:14.038Z,168.58
2022-12-15T05:03:15.124Z,166.31
2022-12-15T05:04:11.882Z,164.62
2022-12-15T05:05:10.816Z,163.36
2022-12-15T05:06:10.809Z,164.03
2022-12-15T05:07:10.968Z,163.10
2022-12-15T05:08:10.761Z,163.19
2022-12-15T05:09:10.820Z,164.61
2022-12-15T05:10:14.913Z,162.00
2022-12-15T05:11:10.721Z,160.42
2022-12-15T05:12:10.734Z,158.51
2022-12-15T05:13:10.748Z,157.31
2022-12-15T05:14:10.681Z,155.79
2022-12-15T05:15:10.702Z,155.02
2022-12-15T05:16:10.767Z,156.51
2022-12-15T05:17:10.702Z,154.71
2022-12-15T05:18:10.699Z,154.35
2022-12-15T05:19:10.652Z,154.89
2022-12-15T05:20:10.632Z,152.82
2022-12-15T05:21:13.611Z,151.79
2022-12-15T05:22:13.618Z,152.86
2022-12-15T05:23:10.601Z,152.71
2022-12-15T05:24:10.604Z,153.12
2022-12-15T05:25:10.572Z,152.92
2022-12-15T05:26:10.550Z,152.46
2022-12-15T05:27:10.532Z,153.66
2022-12-15T05:28:10.513Z,153.11
2022-12-15T05:29:10.552Z,153.92
2022-12-15T05:30:10.509Z,155.73
2022-12-15T05:31:10.519Z,156.48
2022-12-15T05:32:10.466Z,155.89
2022-12-15T05:33:10.452Z,155.10
2022-12-15T05:34:10.423Z,155.36
2022-12-15T05:35:10.452Z,155.10
2022-12-15T05:36:10.428Z,154.51
2022-12-15T05:37:10.412Z,154.98
2022-12-15T05:38:10.402Z,157.01
2022-12-15T05:39:10.382Z,155.24
2022-12-15T05:40:10.455Z,155.67
2022-12-15T05:41:13.363Z,155.11
2022-12-15T05:42:13.372Z,155.27
2022-12-15T05:43:10.342Z,155.68
2022-12-15T05:44:10.301Z,154.91
2022-12-15T05:45:10.384Z,154.13
2022-12-15T05:46:10.333Z,153.85
2022-12-15T05:47:10.313Z,154.00
2022-12-15T05:48:10.276Z,153.73
2022-12-15T05:49:10.252Z,151.51
2022-12-15T05:50:10.235Z,151.98
2022-12-15T05:51:10.210Z,149.83
2022-12-15T05:52:10.223Z,147.39
2022-12-15T05:53:10.210Z,146.45
2022-12-15T05:54:10.184Z,145.65
2022-12-15T05:55:10.174Z,145.29
2022-12-15T05:56:10.173Z,142.91
2022-12-15T05:57:10.170Z,140.66
2022-12-15T05:58:10.115Z,138.61
2022-12-15T05:59:10.102Z,137.26
2022-12-15T06:00:10.095Z,137.73
2022-12-15T06:01:13.132Z,137.69
2022-12-15T06:02:13.175Z,140.00
2022-12-15T06:03:10.183Z,139.76
2022-12-15T06:04:10.117Z,137.71
2022-12-15T06:05:10.096Z,137.85
2022-12-15T06:06:10.005Z,135.35
2022-12-15T06:07:10.005Z,134.80
2022-12-15T06:08:10.042Z,133.46
2022-12-15T06:09:09.994Z,135.41
2022-12-15T06:10:09.963Z,136.29
2022-12-15T06:11:10.012Z,135.61
2022-12-15T06:12:09.953Z,132.61
2022-12-15T06:13:10.005Z,130.66
2022-12-15T06:14:09.946Z,132.22
2022-12-15T06:15:09.987Z,132.86
2022-12-15T06:16:09.985Z,131.94
2022-12-15T06:17:09.917Z,134.02
2022-12-15T06:18:09.896Z,134.40
2022-12-15T06:19:09.913Z,134.80
2022-12-15T06:20:09.842Z,133.90
2022-12-15T06:21:12.844Z,135.47
2022-12-15T06:22:12.813Z,135.55
2022-12-15T06:23:09.806Z,134.97
2022-12-15T06:24:09.955Z,134.49
2022-12-15T06:25:09.794Z,133.90
2022-12-15T06:26:09.765Z,134.32
2022-12-15T06:27:09.793Z,133.93
2022-12-15T06:28:09.755Z,134.00
2022-12-15T06:29:09.714Z,134.46
2022-12-15T06:30:09.735Z,135.34
2022-12-15T06:31:09.784Z,135.79
2022-12-15T06:32:09.704Z,136.42
2022-12-15T06:33:09.680Z,136.60
2022-12-15T06:34:09.668Z,135.90
2022-12-15T06:35:09.732Z,136.07
2022-12-15T06:36:09.644Z,136.89
2022-12-15T06:37:09.608Z,135.51
2022-12-15T06:38:09.607Z,136.95
2022-12-15T06:39:09.591Z,137.28
2022-12-15T06:40:09.607Z,137.20
2022-12-15T06:41:12.615Z,135.08
2022-12-15T06:42:12.736Z,135.65
2022-12-15T06:43:09.555Z,133.57
2022-12-15T06:44:09.555Z,130.30
2022-12-15T06:45:09.573Z,128.72
2022-12-15T06:46:09.592Z,126.38
2022-12-15T06:47:09.564Z,126.14
2022-12-15T06:48:09.505Z,124.95
2022-12-15T06:49:09.467Z,125.10
2022-12-15T06:50:09.485Z,124.22
2022-12-15T06:51:16.430Z,125.27
2022-12-15T06:52:10.466Z,125.10
2022-12-15T06:53:09.417Z,124.56
2022-12-15T06:54:09.405Z,124.29
2022-12-15T06:55:09.376Z,124.01
2022-12-15T06:56:09.386Z,125.94
2022-12-15T06:57:09.377Z,127.22
2022-12-15T06:58:09.329Z,127.62
2022-12-15T06:59:09.326Z,127.72
2022-12-15T07:00:09.317Z,127.79
2022-12-15T07:01:12.317Z,128.16
2022-12-15T07:02:12.539Z,130.00
2022-12-15T07:03:09.402Z,130.65
2022-12-15T07:04:09.399Z,129.47
2022-12-15T07:05:09.295Z,130.17
2022-12-15T07:06:09.255Z,128.49
2022-12-15T07:07:09.283Z,131.64
2022-12-15T07:08:09.188Z,130.15
2022-12-15T07:09:09.197Z,129.35
2022-12-15T07:10:09.208Z,128.28
2022-12-15T07:11:09.171Z,127.65
2022-12-15T07:12:09.157Z,127.49
2022-12-15T07:13:09.169Z,128.01
2022-12-15T07:14:09.118Z,127.98
2022-12-15T07:15:09.177Z,128.90
2022-12-15T07:16:09.147Z,128.43
2022-12-15T07:17:09.097Z,127.02
2022-12-15T07:18:09.056Z,125.49
2022-12-15T07:19:09.076Z,126.45
2022-12-15T07:20:09.049Z,125.76
2022-12-15T07:21:12.124Z,125.03
2022-12-15T07:22:12.032Z,123.57
2022-12-15T07:23:09.028Z,122.77
2022-12-15T07:24:09.291Z,122.24
2022-12-15T07:25:08.988Z,120.27
2022-12-15T07:26:11.598Z,118.71
2022-12-15T07:27:08.992Z,118.47
2022-12-15T07:28:08.938Z,118.30
2022-12-15T07:29:08.963Z,115.16
2022-12-15T07:30:08.918Z,112.66
2022-12-15T07:31:08.960Z,111.93
2022-12-15T07:32:08.960Z,111.46
2022-12-15T07:33:08.888Z,111.71
2022-12-15T07:34:08.871Z,109.95
2022-12-15T07:35:08.868Z,109.57
2022-12-15T07:36:08.834Z,108.81
2022-12-15T07:37:08.848Z,108.82
2022-12-15T07:38:08.889Z,106.81
2022-12-15T07:39:08.837Z,105.27
2022-12-15T07:40:08.799Z,105.11
2022-12-15T07:41:11.788Z,105.25
2022-12-15T07:42:11.783Z,105.16
2022-12-15T07:43:08.929Z,104.84
2022-12-15T07:44:08.741Z,106.56
2022-12-15T07:45:08.749Z,104.59
2022-12-15T07:46:08.807Z,101.91
2022-12-15T07:47:08.711Z,97.27
2022-12-15T07:48:08.719Z,93.10
2022-12-15T07:49:08.712Z,89.30
2022-12-15T07:50:08.665Z,87.21
2022-12-15T07:51:13.853Z,85.24
2022-12-15T07:52:09.629Z,82.77
2022-12-15T07:53:08.622Z,79.21
2022-12-15T07:54:08.636Z,75.65
2022-12-15T07:55:08.670Z,72.73
2022-12-15T07:56:09.812Z,69.06
2022-12-15T07:57:08.625Z,66.96
2022-12-15T07:58:08.570Z,66.14
2022-12-15T07:59:08.540Z,62.68
2022-12-15T08:00:08.535Z,59.00
2022-12-15T08:01:11.682Z,56.62
2022-12-15T08:02:11.757Z,56.07
2022-12-15T08:03:08.653Z,54.38
2022-12-15T08:04:08.532Z,51.61
2022-12-15T08:05:08.529Z,48.60
2022-12-15T08:06:08.481Z,45.62
2022-12-15T08:07:08.495Z,43.26
2022-12-15T08:08:12.288Z,42.36
2022-12-15T08:09:09.469Z,40.58
2022-12-15T08:10:08.420Z,41.10
2022-12-15T08:11:08.435Z,39.14
2022-12-15T08:12:08.401Z,39.49
2022-12-15T08:13:08.411Z,37.92
2022-12-15T08:14:13.493Z,37.35
2022-12-15T08:15:09.481Z,35.65
2022-12-15T08:16:08.385Z,34.57
2022-12-15T08:17:08.345Z,33.05
2022-12-15T08:18:08.369Z,31.41
2022-12-15T08:19:08.297Z,29.66
2022-12-15T08:20:10.237Z,28.23
2022-12-15T08:21:11.296Z,26.41
2022-12-15T08:22:11.312Z,26.85
2022-12-15T08:23:08.282Z,25.27
2022-12-15T08:24:08.251Z,24.32
2022-12-15T08:25:08.252Z,23.99
2022-12-15T08:26:08.255Z,23.35
2022-12-15T08:27:08.282Z,22.08
2022-12-15T08:28:08.183Z,21.09
2022-12-15T08:30:09.210Z,18.99
2022-12-15T08:31:08.162Z,17.98
2022-12-15T08:32:08.278Z,16.76
2022-12-15T08:33:08.182Z,15.82
2022-12-15T08:34:08.123Z,15.57
2022-12-15T08:35:20.067Z,14.91
2022-12-15T08:36:09.124Z,13.74
2022-12-15T08:37:08.130Z,13.01
2022-12-15T08:38:08.085Z,12.68
2022-12-15T08:39:08.114Z,12.77
2022-12-15T08:40:08.043Z,12.28
2022-12-15T08:41:11.075Z,11.74
2022-12-15T08:42:11.025Z,11.33
2022-12-15T08:43:08.065Z,10.69
2022-12-15T08:44:08.024Z,10.63
2022-12-15T08:45:07.975Z,10.55
2022-12-15T08:46:07.999Z,10.61
2022-12-15T08:47:07.982Z,10.37
2022-12-15T08:48:07.969Z,9.80
2022-12-15T08:49:07.936Z,8.83
2022-12-15T08:50:07.944Z,8.08
2022-12-15T08:51:07.919Z,7.17
2022-12-15T08:52:07.917Z,6.65
2022-12-15T08:53:30.352Z,5.84
2022-12-15T08:54:08.867Z,5.57
2022-12-15T08:55:07.891Z,5.06
2022-12-15T08:56:07.967Z,4.87
2022-12-15T08:57:07.955Z,4.87
2022-12-15T08:58:07.905Z,4.48
2022-12-15T08:59:07.875Z,3.44
2022-12-15T09:00:07.866Z,3.13
2022-12-15T09:01:10.942Z,2.74
2022-12-15T09:02:22.471Z,2.75
2022-12-15T09:03:13.778Z,2.40
2022-12-15T09:04:08.299Z,2.30
2022-12-15T09:05:07.873Z,2.14
2022-12-15T09:06:08.100Z,2.00
2022-12-15T09:07:10.061Z,1.36
2022-12-15T09:08:07.869Z,1.26
2022-12-15T09:09:07.881Z,1.28
2022-12-15T09:10:07.727Z,1.39
2022-12-15T09:11:07.744Z,1.66
2022-12-15T09:12:07.792Z,1.17
2022-12-15T09:13:07.699Z,0.74
2022-12-15T09:14:07.762Z,0.34
2022-12-15T09:15:07.702Z,0.20
2022-12-15T09:16:09.873Z,0.39
2022-12-15T09:17:07.728Z,0.50
2022-12-15T09:18:07.609Z,0.59
2022-12-15T09:19:07.601Z,0.51
2022-12-15T09:20:07.548Z,0.32
2022-12-15T09:21:10.505Z,-0.04
2022-12-15T09:22:10.543Z,-0.09
2022-12-15T09:23:07.448Z,-0.02
2022-12-15T09:24:07.497Z,-0.05
2022-12-15T09:25:07.525Z,-0.36
2022-12-15T09:26:15.043Z,-0.57
2022-12-15T09:27:07.358Z,-0.74
2022-12-15T09:28:07.346Z,-0.89
2022-12-15T09:29:07.335Z,-0.68
2022-12-15T09:30:07.327Z,-0.63
2022-12-15T09:31:07.411Z,-0.66
2022-12-15T09:32:13.633Z,-0.65
2022-12-15T09:33:08.284Z,-0.72
2022-12-15T09:34:07.270Z,-0.77
2022-12-15T09:35:07.257Z,-1.06
2022-12-15T09:36:07.246Z,-1.18
2022-12-15T09:37:07.256Z,-0.85
2022-12-15T09:38:07.220Z,-0.89
2022-12-15T09:39:07.198Z,-1.14
2022-12-15T09:40:07.190Z,-1.43
2022-12-15T09:41:10.174Z,-1.51
2022-12-15T09:42:10.341Z,-1.51
2022-12-15T09:43:33.363Z,-2.17
2022-12-15T09:44:08.148Z,-1.97
2022-12-15T09:45:07.119Z,-2.69
2022-12-15T09:46:07.149Z,-3.17
2022-12-15T09:47:07.117Z,-3.22
2022-12-15T09:48:07.112Z,-3.35
2022-12-15T09:49:07.097Z,-3.69
2022-12-15T09:50:07.061Z,-3.93
2022-12-15T09:51:07.046Z,-4.16
2022-12-15T09:52:11.043Z,-4.04
2022-12-15T09:53:23.152Z,-4.19
2022-12-15T09:54:08.049Z,-4.26
2022-12-15T09:55:07.068Z,-3.89
2022-12-15T09:56:06.990Z,-3.73
2022-12-15T09:57:06.969Z,-3.69
2022-12-15T09:58:10.939Z,-3.82
2022-12-15T09:59:06.939Z,-4.11
2022-12-15T10:00:06.942Z,-4.08
2022-12-15T10:01:09.931Z,-4.04
2022-12-15T10:02:10.037Z,-3.80
2022-12-15T10:03:07.081Z,-4.34
2022-12-15T10:04:06.946Z,-4.88
2022-12-15T10:05:06.880Z,-5.12
2022-12-15T10:06:24.880Z,-5.44
2022-12-15T10:07:07.840Z,-5.73
2022-12-15T10:08:06.829Z,-5.87
2022-12-15T10:09:06.815Z,-5.87
2022-12-15T10:10:06.828Z,-6.00
2022-12-15T10:11:06.794Z,-6.58
2022-12-15T10:12:06.781Z,-6.60
2022-12-15T10:13:06.761Z,-6.57
2022-12-15T10:14:06.754Z,-6.78
2022-12-15T10:15:06.763Z,-7.39
2022-12-15T10:16:06.757Z,-7.82
2022-12-15T10:17:06.713Z,-7.59
2022-12-15T10:18:06.697Z,-7.79
2022-12-15T10:19:06.686Z,-8.35
2022-12-15T10:20:06.740Z,-8.89
2022-12-15T10:21:09.652Z,-8.79
2022-12-15T10:22:09.656Z,-9.13
2022-12-15T10:23:06.736Z,-8.99
2022-12-15T10:24:06.667Z,-8.98
2022-12-15T10:25:11.039Z,-9.47
2022-12-15T10:26:07.644Z,-9.71
2022-12-15T10:27:06.585Z,-9.64
2022-12-15T10:28:06.566Z,-9.92
2022-12-15T10:29:06.557Z,-9.99
2022-12-15T10:30:06.596Z,-10.19
2022-12-15T10:31:06.579Z,-9.74
2022-12-15T10:32:06.542Z,-9.79
2022-12-15T10:33:06.493Z,-9.55
2022-12-15T10:34:06.483Z,-9.31
2022-12-15T10:35:06.535Z,-8.99
2022-12-15T10:36:06.462Z,-9.21
2022-12-15T10:37:06.484Z,-9.52
2022-12-15T10:38:06.434Z,-9.83
2022-12-15T10:39:06.456Z,-10.39
2022-12-15T10:40:06.407Z,-10.67
2022-12-15T10:41:09.385Z,-10.48
2022-12-15T10:42:09.427Z,-10.32
2022-12-15T10:43:06.364Z,-10.43
2022-12-15T10:44:06.355Z,-10.53
2022-12-15T10:45:06.366Z,-10.71
2022-12-15T10:46:06.489Z,-10.75
2022-12-15T10:47:06.320Z,-10.41
2022-12-15T10:48:06.312Z,-11.15
2022-12-15T10:49:06.286Z,-11.56
2022-12-15T10:50:06.275Z,-11.83
2022-12-15T10:51:06.259Z,-11.83
2022-12-15T10:52:06.275Z,-11.71
2022-12-15T10:53:06.262Z,-11.91
2022-12-15T10:54:06.228Z,-12.11
2022-12-15T10:55:06.207Z,-12.42
2022-12-15T10:56:06.199Z,-12.18
2022-12-15T10:57:06.187Z,-12.70
2022-12-15T10:58:06.200Z,-13.43
2022-12-15T10:59:06.149Z,-14.09
2022-12-15T11:00:06.137Z,-14.40
2022-12-15T11:01:09.280Z,-14.55
2022-12-15T11:02:09.272Z,-14.53
2022-12-15T11:03:06.280Z,-15.09
2022-12-15T11:04:06.271Z,-16.01
2022-12-15T11:05:06.077Z,-15.97
2022-12-15T11:06:06.070Z,-16.39
2022-12-15T11:07:06.055Z,-16.52
2022-12-15T11:08:10.685Z,-16.98
2022-12-15T11:09:07.020Z,-17.21
2022-12-15T11:10:06.007Z,-17.69
2022-12-15T11:11:07.833Z,-18.74
2022-12-15T11:12:06.026Z,-18.60
2022-12-15T11:13:05.972Z,-19.03
2022-12-15T11:14:05.968Z,-19.92
2022-12-15T11:15:05.942Z,-20.41
2022-12-15T11:16:05.928Z,-21.38
2022-12-15T11:17:05.941Z,-21.60
2022-12-15T11:18:05.917Z,-22.06
2022-12-15T11:19:05.979Z,-22.28
2022-12-15T11:20:05.924Z,-22.36
2022-12-15T11:21:08.900Z,-22.84
2022-12-15T11:22:08.870Z,-21.98
2022-12-15T11:23:05.882Z,-22.11
2022-12-15T11:24:05.899Z,-22.62
2022-12-15T11:25:05.812Z,-23.11
2022-12-15T11:26:07.265Z,-23.86
2022-12-15T11:27:05.790Z,-24.15
2022-12-15T11:28:05.780Z,-24.48
2022-12-15T11:29:05.764Z,-24.71
2022-12-15T11:30:05.758Z,-25.03
2022-12-15T11:31:05.739Z,-24.67
2022-12-15T11:32:07.506Z,-25.25
2022-12-15T11:33:05.712Z,-26.11
2022-12-15T11:34:05.702Z,-27.04
2022-12-15T11:35:05.683Z,-27.86
2022-12-15T11:36:05.694Z,-28.55
2022-12-15T11:37:05.673Z,-29.05
2022-12-15T11:38:05.673Z,-29.60
2022-12-15T11:39:05.676Z,-30.69
2022-12-15T11:40:05.623Z,-32.02
2022-12-15T11:41:08.608Z,-32.79
2022-12-15T11:42:08.674Z,-33.19
2022-12-15T11:43:05.580Z,-33.17
2022-12-15T11:44:06.650Z,-33.55
2022-12-15T11:45:05.552Z,-33.63
2022-12-15T11:46:05.543Z,-33.61
2022-12-15T11:47:05.522Z,-33.66
2022-12-15T11:48:05.542Z,-33.74
2022-12-15T11:49:05.556Z,-33.41
2022-12-15T11:50:05.496Z,-33.72
2022-12-15T11:51:05.482Z,-33.96
2022-12-15T11:52:05.469Z,-32.88
2022-12-15T11:53:05.484Z,-32.54
2022-12-15T11:54:05.434Z,-33.16
2022-12-15T11:55:05.433Z,-33.11
2022-12-15T11:56:05.412Z,-33.28
2022-12-15T11:57:05.393Z,-33.52
2022-12-15T11:58:05.383Z,-34.52
2022-12-15T11:59:05.393Z,-35.35
2022-12-15T12:00:05.364Z,-35.01
2022-12-15T12:01:08.342Z,-35.88
2022-12-15T12:02:08.412Z,-36.52
2022-12-15T12:03:05.396Z,-37.92
2022-12-15T12:04:05.334Z,-38.66
2022-12-15T12:05:05.283Z,-39.57
2022-12-15T12:06:05.280Z,-39.51
2022-12-15T12:07:05.265Z,-39.31
2022-12-15T12:08:05.253Z,-39.20
2022-12-15T12:09:05.282Z,-39.46
2022-12-15T12:10:05.258Z,-39.89
2022-12-15T12:11:05.267Z,-39.65
2022-12-15T12:12:05.198Z,-40.00
2022-12-15T12:13:05.182Z,-39.82
2022-12-15T12:14:09.671Z,-40.32
2022-12-15T12:15:06.196Z,-40.45
2022-12-15T12:16:05.135Z,-40.04
2022-12-15T12:17:05.248Z,-40.84
2022-12-15T12:18:05.124Z,-40.76
2022-12-15T12:19:05.150Z,-40.87
2022-12-15T12:20:11.050Z,-40.93
2022-12-15T12:21:09.130Z,-40.80
2022-12-15T12:22:08.086Z,-40.66
2022-12-15T12:23:05.121Z,-40.43
2022-12-15T12:24:05.034Z,-40.45
2022-12-15T12:25:05.264Z,-40.82
2022-12-15T12:26:05.047Z,-41.14
2022-12-15T12:27:05.091Z,-41.06
2022-12-15T12:28:05.048Z,-41.40
2022-12-15T12:29:05.029Z,-41.90
2022-12-15T12:30:04.996Z,-42.04
2022-12-15T12:31:04.969Z,-41.66
2022-12-15T12:32:05.454Z,-42.31
2022-12-15T12:33:04.919Z,-42.87
2022-12-15T12:34:05.001Z,-43.45
2022-12-15T12:35:30.655Z,-43.82